createdAt,value
2017-07-24T00:02:17.108Z,6.50
2017-07-24T00:04:44.828Z,8.23
2017-07-24T00:07:12.604Z,7.30
2017-07-24T00:09:40.325Z,6.63
2017-07-24T00:12:08.082Z,8.53
2017-07-24T00:14:35.938Z,14.10
2017-07-24T00:17:03.640Z,9.20
2017-07-24T00:19:31.457Z,9.03
2017-07-24T00:21:59.263Z,8.00
2017-07-24T00:24:27.043Z,6.70
2017-07-24T00:26:54.855Z,11.83
2017-07-24T00:29:22.632Z,7.93
2017-07-24T00:31:50.462Z,8.20
2017-07-24T00:34:18.276Z,9.83
2017-07-24T00:36:46.129Z,8.80
2017-07-24T00:39:13.939Z,7.70
2017-07-24T00:41:41.785Z,10.50
2017-07-24T00:44:09.536Z,12.70
2017-07-24T00:46:37.314Z,7.80
2017-07-24T00:49:05.139Z,10.50
2017-07-24T00:51:32.922Z,6.93
2017-07-24T00:54:00.647Z,10.00
2017-07-24T00:56:28.403Z,8.87
2017-07-24T00:58:56.206Z,9.30
2017-07-24T01:01:23.963Z,8.13
2017-07-24T01:03:51.759Z,6.70
2017-07-24T01:06:19.459Z,10.40
2017-07-24T01:08:47.202Z,7.80
2017-07-24T01:11:15.003Z,9.33
2017-07-24T01:13:42.764Z,12.50
2017-07-24T01:16:10.596Z,7.77
2017-07-24T01:18:38.372Z,9.83
2017-07-24T01:21:06.124Z,8.30
2017-07-24T01:23:33.886Z,7.97
2017-07-24T01:26:01.694Z,9.20
2017-07-24T01:28:29.437Z,18.17
2017-07-24T01:30:57.198Z,10.90
2017-07-24T01:33:25.009Z,12.80
2017-07-24T01:35:52.756Z,15.80
2017-07-24T01:38:20.588Z,11.40
2017-07-24T01:40:48.354Z,10.10
2017-07-24T01:43:16.949Z,8.60
2017-07-24T01:45:44.753Z,9.20
2017-07-24T01:48:12.507Z,10.10
2017-07-24T01:50:40.320Z,12.93
2017-07-24T01:53:08.100Z,14.40
2017-07-24T01:55:35.933Z,10.93
2017-07-24T01:58:03.710Z,13.07
2017-07-24T02:00:31.570Z,10.13
2017-07-24T02:02:59.317Z,9.73
2017-07-24T02:05:27.137Z,11.63
2017-07-24T02:07:54.935Z,13.33
2017-07-24T02:10:22.783Z,10.37
2017-07-24T02:12:50.598Z,9.93
2017-07-24T02:15:18.400Z,7.60
2017-07-24T02:17:46.193Z,8.70
2017-07-24T02:20:13.942Z,14.83
2017-07-24T02:22:41.754Z,17.50
2017-07-24T02:25:09.514Z,11.63
2017-07-24T02:27:37.305Z,9.17
2017-07-24T02:30:05.095Z,15.50
2017-07-24T02:32:32.834Z,7.13
2017-07-24T02:35:00.626Z,8.37
2017-07-24T02:37:28.694Z,8.93
2017-07-24T02:39:56.517Z,9.43
2017-07-24T02:42:24.333Z,9.73
2017-07-24T02:44:52.143Z,13.37
2017-07-24T02:47:19.944Z,13.03
2017-07-24T02:49:48.326Z,8.97
2017-07-24T02:52:16.076Z,10.30
2017-07-24T02:54:44.134Z,8.70
2017-07-24T02:57:11.926Z,10.57
2017-07-24T02:59:39.662Z,8.03
2017-07-24T03:02:07.474Z,9.80
2017-07-24T03:04:35.214Z,10.50
2017-07-24T03:07:03.026Z,8.97
2017-07-24T03:09:30.784Z,10.07
2017-07-24T03:11:58.521Z,9.90
2017-07-24T03:14:26.348Z,11.47
2017-07-24T03:16:54.121Z,13.73
2017-07-24T03:19:21.949Z,15.30
2017-07-24T03:21:49.697Z,9.50
2017-07-24T03:24:17.500Z,9.20
2017-07-24T03:26:45.271Z,8.10
2017-07-24T03:29:13.026Z,12.10
2017-07-24T03:31:40.838Z,9.93
2017-07-24T03:34:08.595Z,27.07
2017-07-24T03:36:36.407Z,11.50
2017-07-24T03:39:04.237Z,10.93
2017-07-24T03:41:32.132Z,8.37
2017-07-24T03:43:59.994Z,13.20
2017-07-24T03:46:27.869Z,9.60
2017-07-24T03:48:55.679Z,10.83
2017-07-24T03:51:23.450Z,10.27
2017-07-24T03:53:51.183Z,10.73
2017-07-24T03:56:18.970Z,8.20
2017-07-24T03:58:46.775Z,9.43
2017-07-24T04:01:14.553Z,10.20
2017-07-24T04:03:42.299Z,11.20
2017-07-24T04:06:10.123Z,9.43
2017-07-24T04:08:37.949Z,11.03
2017-07-24T04:11:05.747Z,11.07
2017-07-24T04:13:33.502Z,8.87
2017-07-24T04:16:01.224Z,6.90
2017-07-24T04:18:29.045Z,11.87
2017-07-24T04:20:56.783Z,11.93
2017-07-24T04:23:24.524Z,9.10
2017-07-24T04:25:52.312Z,6.93
2017-07-24T04:28:20.131Z,7.87
2017-07-24T04:30:47.935Z,8.50
2017-07-24T04:33:15.777Z,7.93
2017-07-24T04:35:43.544Z,12.40
2017-07-24T04:38:11.351Z,10.30
2017-07-24T04:40:39.109Z,10.60
2017-07-24T04:43:06.814Z,11.30
2017-07-24T04:45:34.637Z,10.97
2017-07-24T04:48:02.421Z,10.47
2017-07-24T04:50:30.233Z,10.17
2017-07-24T04:52:58.029Z,9.50
2017-07-24T04:55:26.075Z,10.80
2017-07-24T04:57:53.854Z,10.90
2017-07-24T05:00:21.798Z,8.93
2017-07-24T05:02:49.583Z,12.30
2017-07-24T05:05:17.422Z,9.60
2017-07-24T05:07:45.315Z,8.47
2017-07-24T05:10:13.475Z,7.70
2017-07-24T05:12:41.455Z,8.87
2017-07-24T05:15:09.429Z,7.70
2017-07-24T05:17:37.331Z,8.17
2017-07-24T05:20:05.263Z,7.60
2017-07-24T05:22:33.037Z,7.30
2017-07-24T05:25:00.884Z,8.43
2017-07-24T05:27:28.680Z,6.93
2017-07-24T05:29:56.517Z,9.30
2017-07-24T05:32:24.354Z,8.57
2017-07-24T05:34:52.208Z,8.37
2017-07-24T05:37:20.087Z,9.07
2017-07-24T05:39:47.977Z,7.83
2017-07-24T05:42:15.824Z,8.20
2017-07-24T05:44:43.630Z,6.30
2017-07-24T05:47:11.476Z,6.10
2017-07-24T05:49:40.793Z,5.70
2017-07-24T05:52:08.783Z,5.70
2017-07-24T05:54:36.891Z,7.40
2017-07-24T05:57:04.810Z,4.80
2017-07-24T05:59:32.783Z,5.13
2017-07-24T06:02:00.582Z,5.03
2017-07-24T06:04:28.436Z,5.40
2017-07-24T06:06:56.375Z,5.50
2017-07-24T06:09:24.146Z,5.33
2017-07-24T06:11:52.223Z,6.80
2017-07-24T06:14:20.058Z,6.40
2017-07-24T06:16:47.923Z,7.53
2017-07-24T06:19:15.769Z,7.13
2017-07-24T06:21:43.550Z,7.33
2017-07-24T06:24:11.384Z,7.57
2017-07-24T06:26:39.077Z,8.53
2017-07-24T06:29:06.808Z,8.20
2017-07-24T06:31:34.499Z,6.97
2017-07-24T06:34:02.226Z,7.70
2017-07-24T06:36:29.952Z,7.20
2017-07-24T06:38:57.708Z,8.70
2017-07-24T06:41:25.442Z,5.70
2017-07-24T06:43:53.170Z,6.37
2017-07-24T06:46:20.882Z,7.87
2017-07-24T06:48:48.597Z,5.07
2017-07-24T06:51:16.303Z,5.83
2017-07-24T06:53:44.068Z,7.13
2017-07-24T06:56:11.762Z,6.93
2017-07-24T06:58:39.544Z,4.70
2017-07-24T07:01:07.239Z,3.47
2017-07-24T07:03:34.969Z,3.50
2017-07-24T07:06:02.637Z,7.50
2017-07-24T07:08:30.314Z,6.20
2017-07-24T07:10:58.047Z,5.27
2017-07-24T07:13:25.727Z,4.20
2017-07-24T07:15:53.476Z,3.97
2017-07-24T07:18:21.264Z,3.53
2017-07-24T07:20:48.979Z,3.97
2017-07-24T07:23:17.823Z,3.30
2017-07-24T07:25:45.716Z,3.90
2017-07-24T07:28:13.650Z,3.30
2017-07-24T07:30:41.619Z,4.73
2017-07-24T07:33:09.424Z,5.30
2017-07-24T07:35:40.035Z,3.47
2017-07-24T07:38:07.756Z,6.13
2017-07-24T07:40:36.135Z,3.10
2017-07-24T07:43:03.882Z,5.50
2017-07-24T07:45:31.576Z,2.50
2017-07-24T07:48:00.636Z,4.73
2017-07-24T07:50:28.547Z,4.27
2017-07-24T07:52:56.345Z,4.80
2017-07-24T07:55:24.043Z,3.27
2017-07-24T07:57:51.784Z,3.00
2017-07-24T08:00:19.631Z,5.37
2017-07-24T08:03:27.826Z,2.77
2017-07-24T08:08:37.215Z,3.77
2017-07-24T08:11:05.195Z,3.90
2017-07-24T08:13:33.179Z,2.87
2017-07-24T08:16:04.737Z,2.73
2017-07-24T08:18:32.563Z,2.63
2017-07-24T08:21:02.219Z,2.90
2017-07-24T08:23:30.182Z,8.90
2017-07-24T08:25:58.088Z,3.40
2017-07-24T08:28:26.113Z,3.27
2017-07-24T08:30:53.947Z,3.23
2017-07-24T08:33:51.890Z,5.50
2017-07-24T08:36:24.825Z,7.80
2017-07-24T08:38:52.895Z,6.70
2017-07-24T08:41:20.834Z,2.20
2017-07-24T08:43:48.571Z,2.50
2017-07-24T08:46:16.858Z,2.97
2017-07-24T08:48:44.761Z,2.70
2017-07-24T08:51:12.584Z,3.30
2017-07-24T08:53:47.664Z,3.53
2017-07-24T08:56:15.524Z,4.70
2017-07-24T08:58:43.258Z,3.30
2017-07-24T09:01:11.148Z,3.03
2017-07-24T09:03:39.028Z,3.27
2017-07-24T09:06:06.906Z,3.60
2017-07-24T09:08:34.724Z,2.60
2017-07-24T09:11:02.528Z,3.07
2017-07-24T09:13:30.308Z,3.47
2017-07-24T09:15:58.111Z,3.70
2017-07-24T09:18:25.788Z,5.70
2017-07-24T09:20:53.498Z,2.40
2017-07-24T09:23:21.245Z,4.97
2017-07-24T09:25:49.038Z,3.60
2017-07-24T09:28:16.784Z,2.40
2017-07-24T09:30:44.613Z,2.50
2017-07-24T09:33:12.374Z,2.47
2017-07-24T09:35:40.175Z,3.47
2017-07-24T09:38:07.919Z,2.27
2017-07-24T09:40:35.661Z,2.37
2017-07-24T09:43:03.588Z,3.60
2017-07-24T09:45:31.371Z,2.40
2017-07-24T09:47:59.182Z,4.17
2017-07-24T09:50:26.956Z,2.80
2017-07-24T09:52:54.755Z,1.93
2017-07-24T09:55:22.499Z,2.50
2017-07-24T09:57:50.325Z,2.60
2017-07-24T10:00:18.102Z,3.93
2017-07-24T10:02:45.853Z,2.10
2017-07-24T10:05:13.637Z,2.90
2017-07-24T10:07:41.397Z,2.40
2017-07-24T10:10:09.175Z,2.50
2017-07-24T10:12:36.913Z,2.07
2017-07-24T10:15:04.684Z,4.93
2017-07-24T10:17:32.366Z,1.87
2017-07-24T10:20:00.186Z,3.30
2017-07-24T10:22:27.956Z,2.30
2017-07-24T10:24:55.724Z,3.70
2017-07-24T10:27:23.545Z,2.27
2017-07-24T10:29:51.427Z,5.20
2017-07-24T10:32:19.245Z,2.63
2017-07-24T10:34:46.982Z,2.10
2017-07-24T10:37:14.782Z,2.43
2017-07-24T10:39:42.540Z,2.50
2017-07-24T10:42:10.339Z,2.13
2017-07-24T10:44:38.096Z,3.03
2017-07-24T10:47:05.860Z,2.73
2017-07-24T10:49:33.695Z,3.43
2017-07-24T10:52:02.544Z,2.83
2017-07-24T10:54:30.263Z,2.53
2017-07-24T10:56:57.945Z,2.23
2017-07-24T10:59:25.738Z,2.27
2017-07-24T11:01:53.478Z,2.53
2017-07-24T11:04:21.294Z,2.20
2017-07-24T11:06:49.094Z,1.53
2017-07-24T11:09:16.863Z,1.87
2017-07-24T11:11:44.698Z,2.10
2017-07-24T11:14:12.392Z,2.00
2017-07-24T11:16:40.223Z,4.03
2017-07-24T11:19:07.999Z,2.00
2017-07-24T11:21:35.803Z,5.07
2017-07-24T11:24:03.507Z,3.20
2017-07-24T11:26:31.328Z,1.90
2017-07-24T11:28:59.003Z,2.00
2017-07-24T11:31:26.882Z,14.00
2017-07-24T11:33:54.644Z,1.77
2017-07-24T11:36:22.469Z,3.97
2017-07-24T11:38:50.205Z,2.10
2017-07-24T11:41:18.014Z,2.30
2017-07-24T11:43:45.781Z,2.23
2017-07-24T11:46:13.586Z,2.27
2017-07-24T11:48:41.346Z,2.33
2017-07-24T11:51:09.196Z,7.00
2017-07-24T11:53:36.974Z,3.07
2017-07-24T11:56:04.677Z,2.20
2017-07-24T11:58:32.354Z,2.87
2017-07-24T12:01:00.135Z,4.13
2017-07-24T12:03:27.873Z,2.20
2017-07-24T12:05:55.576Z,3.50
2017-07-24T12:08:23.233Z,4.03
2017-07-24T12:10:50.911Z,2.27
2017-07-24T12:13:18.676Z,2.20
2017-07-24T12:15:46.357Z,2.93
2017-07-24T12:18:14.135Z,1.90
2017-07-24T12:20:41.839Z,4.63
2017-07-24T12:23:09.596Z,2.77
2017-07-24T12:25:37.274Z,2.67
2017-07-24T12:28:04.985Z,1.67
2017-07-24T12:30:32.666Z,2.20
2017-07-24T12:33:00.385Z,2.13
2017-07-24T12:35:28.090Z,4.90
2017-07-24T12:37:55.831Z,1.80
2017-07-24T12:40:23.522Z,4.60
2017-07-24T12:42:51.264Z,3.03
2017-07-24T12:45:18.935Z,2.20
2017-07-24T12:47:46.956Z,4.80
2017-07-24T12:50:14.627Z,2.10
2017-07-24T12:52:42.439Z,6.53
2017-07-24T12:55:10.198Z,2.40
2017-07-24T12:57:38.004Z,2.13
2017-07-24T13:00:05.679Z,3.07
2017-07-24T13:02:33.493Z,4.70
2017-07-24T13:05:01.170Z,4.20
2017-07-24T13:07:28.995Z,3.23
2017-07-24T13:09:56.741Z,4.53
2017-07-24T13:12:24.577Z,2.60
2017-07-24T13:14:52.325Z,2.40
2017-07-24T13:17:20.099Z,3.00
2017-07-24T13:19:47.930Z,5.27
2017-07-24T13:22:16.652Z,2.57
2017-07-24T13:24:44.451Z,3.77
2017-07-24T13:27:12.223Z,6.53
2017-07-24T13:29:40.056Z,3.60
2017-07-24T13:32:07.822Z,6.60
2017-07-24T13:34:35.627Z,2.70
2017-07-24T13:37:03.402Z,7.33
2017-07-24T13:39:31.210Z,4.50
2017-07-24T13:41:58.961Z,3.33
2017-07-24T13:44:26.762Z,4.23
2017-07-24T13:46:54.529Z,4.00
2017-07-24T13:49:22.323Z,3.10
2017-07-24T13:51:50.117Z,6.40
2017-07-24T13:54:17.875Z,3.50
2017-07-24T13:56:45.638Z,4.20
2017-07-24T13:59:13.470Z,6.33
2017-07-24T14:01:41.243Z,3.80
2017-07-24T14:04:09.046Z,4.20
2017-07-24T14:06:36.815Z,3.50
2017-07-24T14:09:04.692Z,4.63
2017-07-24T14:11:32.463Z,3.50
2017-07-24T14:14:00.273Z,3.40
2017-07-24T14:16:28.061Z,3.43
2017-07-24T14:18:55.776Z,3.20
2017-07-24T14:21:23.586Z,5.23
2017-07-24T14:23:51.351Z,4.03
2017-07-24T14:26:19.162Z,2.60
2017-07-24T14:28:46.935Z,6.10
2017-07-24T14:31:14.791Z,6.87
2017-07-24T14:33:42.596Z,4.40
2017-07-24T14:36:10.412Z,3.00
2017-07-24T14:38:38.192Z,3.80
2017-07-24T14:41:06.027Z,3.13
2017-07-24T14:43:33.812Z,3.40
2017-07-24T14:46:01.638Z,3.87
2017-07-24T14:48:29.378Z,4.37
2017-07-24T14:50:57.131Z,4.50
2017-07-24T14:53:24.847Z,8.70
2017-07-24T14:55:52.570Z,3.10
2017-07-24T14:58:20.273Z,2.93
2017-07-24T15:00:48.044Z,3.53
2017-07-24T15:03:15.824Z,2.83
2017-07-24T15:05:43.664Z,6.07
2017-07-24T15:08:11.482Z,3.83
2017-07-24T15:10:39.333Z,3.30
2017-07-24T15:13:07.113Z,4.00
2017-07-24T15:15:34.922Z,3.10
2017-07-24T15:18:02.742Z,4.70
2017-07-24T15:20:30.521Z,4.23
2017-07-24T15:22:58.333Z,7.50
2017-07-24T15:25:26.001Z,4.47
2017-07-24T15:27:53.792Z,7.33
2017-07-24T15:30:21.476Z,3.73
2017-07-24T15:32:49.327Z,4.47
2017-07-24T15:35:17.094Z,3.60
2017-07-24T15:37:44.933Z,3.73
2017-07-24T15:40:12.590Z,5.33
2017-07-24T15:42:40.342Z,3.87
2017-07-24T15:45:08.160Z,6.10
2017-07-24T15:47:36.037Z,4.13
2017-07-24T15:50:03.826Z,6.40
2017-07-24T15:52:31.642Z,4.03
2017-07-24T15:54:59.456Z,3.70
2017-07-24T15:57:27.202Z,4.80
2017-07-24T15:59:54.961Z,4.63
2017-07-24T16:02:22.682Z,6.80
2017-07-24T16:04:50.444Z,5.47
2017-07-24T16:07:18.239Z,3.90
2017-07-24T16:09:45.984Z,4.90
2017-07-24T16:12:13.788Z,7.80
2017-07-24T16:14:41.552Z,5.00
2017-07-24T16:17:09.389Z,5.07
2017-07-24T16:19:37.182Z,5.70
2017-07-24T16:22:04.866Z,5.97
2017-07-24T16:24:32.723Z,7.00
2017-07-24T16:27:00.485Z,6.17
2017-07-24T16:29:28.216Z,8.27
2017-07-24T16:31:56.025Z,6.30
2017-07-24T16:34:23.857Z,12.50
2017-07-24T16:36:51.609Z,7.53
2017-07-24T16:39:20.296Z,7.27
2017-07-24T16:41:48.041Z,8.73
2017-07-24T16:44:15.739Z,8.47
2017-07-24T16:46:43.577Z,7.80
2017-07-24T16:49:11.344Z,8.17
2017-07-24T16:51:39.192Z,12.87
2017-07-24T16:54:07.027Z,8.40
2017-07-24T16:56:34.835Z,7.57
2017-07-24T16:59:02.659Z,9.93
2017-07-24T17:01:30.494Z,9.07
2017-07-24T17:03:58.337Z,9.13
2017-07-24T17:06:26.137Z,8.90
2017-07-24T17:08:53.927Z,10.80
2017-07-24T17:11:21.601Z,11.10
2017-07-24T17:13:49.416Z,8.10
2017-07-24T17:16:17.085Z,9.97
2017-07-24T17:18:44.909Z,10.93
2017-07-24T17:21:12.672Z,10.20
2017-07-24T17:23:40.446Z,12.17
2017-07-24T17:26:08.161Z,9.70
2017-07-24T17:28:35.864Z,11.70
2017-07-24T17:31:03.593Z,8.47
2017-07-24T17:33:31.274Z,9.07
2017-07-24T17:35:59.033Z,8.37
2017-07-24T17:38:26.724Z,6.90
2017-07-24T17:40:54.489Z,7.83
2017-07-24T17:43:22.278Z,9.67
2017-07-24T17:45:50.029Z,8.67
2017-07-24T17:48:17.838Z,7.30
2017-07-24T17:50:45.617Z,8.80
2017-07-24T17:53:13.426Z,10.17
2017-07-24T17:55:41.185Z,9.00
2017-07-24T17:58:08.953Z,9.57
2017-07-24T18:00:36.747Z,16.47
2017-07-24T18:03:04.541Z,11.80
2017-07-24T18:05:32.352Z,11.63
2017-07-24T18:08:00.029Z,9.40
2017-07-24T18:10:27.890Z,9.83
2017-07-24T18:12:56.276Z,14.87
2017-07-24T18:15:24.121Z,11.93
2017-07-24T18:17:51.905Z,11.50
2017-07-24T18:20:19.718Z,12.20
2017-07-24T18:22:47.575Z,12.03
2017-07-24T18:25:15.361Z,12.67
2017-07-24T18:27:43.198Z,12.27
2017-07-24T18:30:10.994Z,12.80
2017-07-24T18:32:38.793Z,19.83
2017-07-24T18:35:06.594Z,11.43
2017-07-24T18:37:34.437Z,12.30
2017-07-24T18:40:02.231Z,12.70
2017-07-24T18:42:29.997Z,14.90
2017-07-24T18:44:57.715Z,13.27
2017-07-24T18:47:25.478Z,18.77
2017-07-24T18:49:53.371Z,15.60
2017-07-24T18:52:21.225Z,14.27
2017-07-24T18:54:49.022Z,13.20
2017-07-24T18:57:16.805Z,13.43
2017-07-24T18:59:44.601Z,16.87
2017-07-24T19:02:12.398Z,14.90
2017-07-24T19:04:40.184Z,13.80
2017-07-24T19:07:08.015Z,12.60
2017-07-24T19:09:35.779Z,13.97
2017-07-24T19:12:03.586Z,15.30
2017-07-24T19:14:31.346Z,10.27
2017-07-24T19:16:59.173Z,11.47
2017-07-24T19:19:26.943Z,11.17
2017-07-24T19:21:54.786Z,10.60
2017-07-24T19:24:22.495Z,12.23
2017-07-24T19:26:50.251Z,10.03
2017-07-24T19:29:18.070Z,10.67
2017-07-24T19:31:45.736Z,8.57
2017-07-24T19:34:13.461Z,9.57
2017-07-24T19:36:42.011Z,9.17
2017-07-24T19:39:09.757Z,8.13
2017-07-24T19:41:37.439Z,10.20
2017-07-24T19:44:05.210Z,10.30
2017-07-24T19:46:32.921Z,13.30
2017-07-24T19:49:00.603Z,9.00
2017-07-24T19:51:28.345Z,10.13
2017-07-24T19:53:56.036Z,10.10
2017-07-24T19:56:23.750Z,9.63
2017-07-24T19:58:51.412Z,9.70
2017-07-24T20:01:19.155Z,11.73
2017-07-24T20:03:46.824Z,11.17
2017-07-24T20:06:14.540Z,11.93
2017-07-24T20:08:42.272Z,20.63
2017-07-24T20:11:09.990Z,11.00
2017-07-24T20:13:37.715Z,10.60
2017-07-24T20:16:05.412Z,12.37
2017-07-24T20:18:33.148Z,12.87
2017-07-24T20:21:00.835Z,11.70
2017-07-24T20:23:28.518Z,12.07
2017-07-24T20:25:56.383Z,16.60
2017-07-24T20:28:24.078Z,14.70
2017-07-24T20:30:51.812Z,14.23
2017-07-24T20:33:19.493Z,13.33
2017-07-24T20:35:47.277Z,10.47
2017-07-24T20:38:14.981Z,11.00
2017-07-24T20:40:42.671Z,11.80
2017-07-24T20:43:10.485Z,11.87
2017-07-24T20:45:38.294Z,10.47
2017-07-24T20:48:06.032Z,9.77
2017-07-24T20:50:33.813Z,13.00
2017-07-24T20:53:01.591Z,14.37
2017-07-24T20:55:29.298Z,12.33
2017-07-24T20:57:57.048Z,16.03
2017-07-24T21:00:24.774Z,13.30
2017-07-24T21:02:52.444Z,13.40
2017-07-24T21:05:20.179Z,13.50
2017-07-24T21:07:47.863Z,16.53
2017-07-24T21:10:15.590Z,12.87
2017-07-24T21:12:43.283Z,20.67
2017-07-24T21:15:11.075Z,14.17
2017-07-24T21:17:38.862Z,11.97
2017-07-24T21:20:06.702Z,14.13
2017-07-24T21:22:34.470Z,13.40
2017-07-24T21:25:02.155Z,16.50
2017-07-24T21:27:29.966Z,13.20
2017-07-24T21:29:57.676Z,12.83
2017-07-24T21:32:25.412Z,15.30
2017-07-24T21:34:53.192Z,14.30
2017-07-24T21:37:20.956Z,16.37
2017-07-24T21:39:48.759Z,15.20
2017-07-24T21:42:16.584Z,15.87
2017-07-24T21:44:44.342Z,18.27
2017-07-24T21:47:12.109Z,17.23
2017-07-24T21:49:39.856Z,15.37
2017-07-24T21:52:07.647Z,18.70
2017-07-24T21:54:35.471Z,12.60
2017-07-24T21:57:03.224Z,15.23
2017-07-24T21:59:31.032Z,18.40
2017-07-24T22:01:58.773Z,16.33
2017-07-24T22:04:26.593Z,20.23
2017-07-24T22:06:54.370Z,19.17
2017-07-24T22:09:22.142Z,23.53
2017-07-24T22:11:49.962Z,21.87
2017-07-24T22:14:17.769Z,36.03
2017-07-24T22:16:45.569Z,23.87
2017-07-24T22:19:13.388Z,21.00
2017-07-24T22:21:41.254Z,20.63
2017-07-24T22:24:09.281Z,22.77
2017-07-24T22:26:37.142Z,24.00
2017-07-24T22:29:04.961Z,25.90
2017-07-24T22:31:32.792Z,21.87
2017-07-24T22:34:00.666Z,19.73
2017-07-24T22:36:28.536Z,17.90
2017-07-24T22:38:56.389Z,20.00
2017-07-24T22:41:24.197Z,24.40
2017-07-24T22:43:52.074Z,26.67
2017-07-24T22:46:19.805Z,22.30
2017-07-24T22:48:47.662Z,22.77
2017-07-24T22:51:15.460Z,19.50
2017-07-24T22:53:43.270Z,18.80
2017-07-24T22:56:11.124Z,26.40
2017-07-24T22:58:38.958Z,20.57
2017-07-24T23:01:06.803Z,21.97
2017-07-24T23:03:34.548Z,21.60
2017-07-24T23:06:02.385Z,18.77
2017-07-24T23:08:30.174Z,27.40
2017-07-24T23:10:58.025Z,22.20
2017-07-24T23:13:25.816Z,22.57
2017-07-24T23:15:53.585Z,20.93
2017-07-24T23:18:21.406Z,18.03
2017-07-24T23:20:49.166Z,21.13
2017-07-24T23:23:16.975Z,21.00
2017-07-24T23:25:44.751Z,22.40
2017-07-24T23:28:12.569Z,18.40
2017-07-24T23:30:40.397Z,18.77
2017-07-24T23:33:08.242Z,15.97
2017-07-24T23:35:36.016Z,20.07
2017-07-24T23:38:03.796Z,22.00
2017-07-24T23:40:31.604Z,26.93
2017-07-24T23:42:59.395Z,18.03
2017-07-24T23:45:27.224Z,20.17
2017-07-24T23:47:55.011Z,16.23
2017-07-24T23:50:22.829Z,18.50
2017-07-24T23:52:50.596Z,23.10
2017-07-24T23:55:18.432Z,28.53
2017-07-24T23:57:46.208Z,22.30
